Time;durP1;ratioP1;P1;durP2;ratioP2;P2;SDS_P1;SDS_P2;PMS_P1;PMS_P2;Temp;Humidity;BMP_temperature;BMP_pressure;BME280_temperature;BME280_humidity;BME280_pressure;Samples;Min_cycle;Max_cycle;Signal;HPM_P1;HPM_P2
2021/09/09 18:31:03;;;;;;;;;;;15.50;72.40;;;;;;5111254;27;19916;-90
2021/09/09 18:33:29;;;;;;;;;;;15.10;75.80;;;;;;5128267;27;20004;-93
2021/09/09 18:35:56;;;;;;;;;;;15.10;78.60;;;;;;5092116;28;19917;-89
2021/09/09 18:38:22;;;;;;;;;;;15.10;80.70;;;;;;5092372;28;20379;-90
2021/09/09 18:40:47;;;;;;;;;;;15.20;82.40;;;;;;5091070;28;19912;-91
2021/09/09 18:43:13;;;;;;;;;;;15.20;83.50;;;;;;5091895;28;19934;-90
2021/09/09 18:45:39;;;;;;;;;;;15.30;84.50;;;;;;5090977;28;19947;-91
2021/09/09 18:48:04;;;;;;;;;;;15.30;85.20;;;;;;5090968;28;20129;-90
2021/09/09 18:50:30;;;;;;;;;;;15.40;85.90;;;;;;5091146;28;20340;-92
2021/09/09 18:52:55;;;;;;;;;;;15.50;86.30;;;;;;5091891;28;19995;-92
2021/09/09 18:55:21;;;;;;;;;;;15.50;86.60;;;;;;5089769;28;19966;-91
2021/09/09 18:57:48;;;;;;;;;;;15.50;86.90;;;;;;5091617;28;19913;-91
2021/09/09 19:00:14;;;;;;;;;;;15.50;87.10;;;;;;5091527;28;19962;-91
2021/09/09 19:02:39;;;;;;;;;;;15.60;87.30;;;;;;5091794;28;19916;-93
2021/09/09 19:05:05;;;;;;;;;;;15.60;87.50;;;;;;5091600;28;20368;-94
2021/09/09 19:07:31;;;;;;;;;;;15.60;87.60;;;;;;5093057;28;20268;-92
2021/09/09 19:09:56;;;;;;;;;;;15.60;87.60;;;;;;5091134;28;20326;-93
2021/09/09 19:12:22;;;;;;;;;;;15.60;87.60;;;;;;5089792;28;20014;-92
2021/09/09 19:14:50;;;;;;;;;;;15.60;87.80;;;;;;5093006;28;19913;-92
2021/09/09 19:17:15;;;;;;;;;;;15.60;87.90;;;;;;5091832;28;19939;-93
2021/09/09 19:19:41;;;;;;;;;;;15.60;88.10;;;;;;5091276;28;19913;-92
2021/09/09 19:22:07;;;;;;;;;;;15.50;88.00;;;;;;5091459;28;19934;-92
2021/09/09 19:24:33;;;;;;;;;;;15.50;88.10;;;;;;5090742;28;19912;-93
2021/09/09 19:26:59;;;;;;;;;;;15.50;88.00;;;;;;5091652;28;19920;-92
2021/09/09 19:29:26;;;;;;;;;;;15.50;88.10;;;;;;5090369;28;19928;-93
2021/09/09 19:31:52;;;;;;;;;;;15.40;88.10;;;;;;5091017;28;19916;-92
2021/09/09 19:34:18;;;;;;;;;;;15.40;88.30;;;;;;5091478;28;20312;-95
2021/09/09 19:36:43;;;;;;;;;;;15.40;88.40;;;;;;5092307;28;20023;-92
2021/09/09 19:39:09;;;;;;;;;;;15.40;88.50;;;;;;5097511;28;19923;-93
2021/09/09 19:41:35;;;;;;;;;;;15.40;88.60;;;;;;5081229;28;20647;-93
2021/09/09 19:44:01;;;;;;;;;;;15.30;88.60;;;;;;5076459;28;19920;-93
2021/09/09 19:46:26;;;;;;;;;;;15.40;88.80;;;;;;5077181;28;19912;-93
2021/09/09 19:48:52;;;;;;;;;;;15.30;88.90;;;;;;5109325;28;20284;-94
2021/09/09 20:15:37;;;;;;;;;;;14.20;82.30;;;;;;5153098;27;20268;-92
2021/09/09 20:18:03;;;;;;;;;;;14.00;85.40;;;;;;5107355;28;20007;-92
2021/09/09 20:20:29;;;;;;;;;;;14.00;88.00;;;;;;5089471;28;19921;-92
2021/09/09 20:22:54;;;;;;;;;;;14.00;89.50;;;;;;5089478;28;19919;-93
2021/09/09 20:25:20;;;;;;;;;;;14.00;90.20;;;;;;5089781;28;19951;-93
2021/09/09 20:27:48;;;;;;;;;;;14.00;90.50;;;;;;5089782;28;19919;-92
2021/09/09 20:30:14;;;;;;;;;;;14.00;90.90;;;;;;5090201;28;20398;-91
2021/09/09 20:32:39;;;;;;;;;;;14.10;91.10;;;;;;5089734;28;19913;-92
2021/09/09 20:35:06;;;;;;;;;;;14.10;91.20;;;;;;5089741;28;19916;-93
2021/09/09 20:37:31;;;;;;;;;;;14.10;91.40;;;;;;5089746;28;19912;-93
2021/09/09 20:39:57;;;;;;;;;;;14.10;91.40;;;;;;5089187;28;20383;-92
2021/09/09 20:42:22;;;;;;;;;;;14.20;91.50;;;;;;5089742;28;19916;-94
2021/09/09 20:44:48;;;;;;;;;;;14.20;91.60;;;;;;5090113;28;19927;-93
2021/09/09 20:47:14;;;;;;;;;;;14.20;91.60;;;;;;5089240;28;20365;-94
2021/09/09 20:49:39;;;;;;;;;;;14.20;91.70;;;;;;5086352;28;19947;-93
2021/09/09 20:52:05;;;;;;;;;;;14.20;91.70;;;;;;5094002;28;19915;-93
2021/09/09 20:54:30;;;;;;;;;;;14.20;91.70;;;;;;5095631;28;19966;-95
2021/09/09 20:56:56;;;;;;;;;;;14.20;91.70;;;;;;5087494;28;19927;-94
2021/09/09 20:59:21;;;;;;;;;;;14.20;91.80;;;;;;5089687;28;19959;-94
